Time;durP1;ratioP1;P1;durP2;ratioP2;P2;SDS_P1;SDS_P2;PMS_P1;PMS_P2;Temp;Humidity;BMP_temperature;BMP_pressure;BME280_temperature;BME280_humidity;BME280_pressure;Samples;Min_cycle;Max_cycle;Signal;HPM_P1;HPM_P2
2023/01/22 00:00:32;;;;;;;17.52;7.47;;;2.20;99.90;;;;;;5072921;28;20039;-70
2023/01/22 00:02:57;;;;;;;18.70;7.05;;;2.20;99.90;;;;;;5055026;28;20028;-70
2023/01/22 00:05:23;;;;;;;14.98;6.50;;;2.30;99.90;;;;;;5072853;28;20143;-70
2023/01/22 00:07:48;;;;;;;16.20;6.28;;;2.20;99.90;;;;;;5072771;28;20480;-70
2023/01/22 00:10:14;;;;;;;11.93;5.88;;;2.30;99.90;;;;;;5054692;28;20037;-70
2023/01/22 00:12:40;;;;;;;11.73;5.65;;;2.30;99.90;;;;;;5054819;28;20020;-70
2023/01/22 00:15:06;;;;;;;10.35;5.32;;;2.20;99.90;;;;;;5054801;28;20081;-70
2023/01/22 00:17:31;;;;;;;14.68;6.20;;;2.20;99.90;;;;;;5055063;28;20017;-71
2023/01/22 00:19:57;;;;;;;15.98;6.22;;;2.10;99.90;;;;;;5072847;28;20021;-70
2023/01/22 00:22:22;;;;;;;16.80;6.35;;;2.00;99.90;;;;;;5055409;28;20032;-70
2023/01/22 00:24:48;;;;;;;14.20;5.80;;;2.10;99.90;;;;;;5055473;28;20029;-70
2023/01/22 00:27:13;;;;;;;15.48;5.88;;;2.20;99.90;;;;;;5054649;28;20483;-70
2023/01/22 00:29:39;;;;;;;9.15;4.78;;;2.20;99.90;;;;;;5054914;28;20056;-70
2023/01/22 00:32:05;;;;;;;13.32;5.88;;;2.30;99.90;;;;;;5054644;28;20069;-70
2023/01/22 00:34:30;;;;;;;18.17;6.15;;;2.30;99.90;;;;;;5054934;28;20115;-70
2023/01/22 00:36:56;;;;;;;12.15;5.90;;;2.30;99.90;;;;;;5055664;28;20016;-71
2023/01/22 00:39:22;;;;;;;14.32;5.18;;;2.20;99.90;;;;;;5072746;28;20080;-70
2023/01/22 00:41:48;;;;;;;16.33;6.53;;;2.10;99.90;;;;;;5054623;28;20047;-70
2023/01/22 00:44:14;;;;;;;11.48;5.38;;;2.20;99.90;;;;;;5055769;28;20051;-70
2023/01/22 00:46:39;;;;;;;14.43;5.78;;;2.20;99.90;;;;;;5072612;28;20029;-70
2023/01/22 00:49:05;;;;;;;17.88;5.43;;;2.10;99.90;;;;;;5072764;28;20035;-70
2023/01/22 00:51:32;;;;;;;11.30;4.93;;;2.20;99.90;;;;;;5054765;28;20024;-70
2023/01/22 00:53:57;;;;;;;9.27;4.78;;;2.30;99.90;;;;;;5058795;28;20116;-70
2023/01/22 00:56:23;;;;;;;8.60;4.63;;;2.30;99.90;;;;;;5034490;28;20032;-70
2023/01/22 00:58:49;;;;;;;10.02;4.68;;;2.30;99.90;;;;;;5034573;28;20104;-70
2023/01/22 01:01:15;;;;;;;12.52;5.47;;;2.30;99.90;;;;;;5035262;28;20017;-70
2023/01/22 01:03:41;;;;;;;8.25;4.60;;;2.30;99.90;;;;;;5035328;28;20029;-70
2023/01/22 01:06:11;;;;;;;8.77;4.45;;;2.40;99.90;;;;;;5034732;28;20029;-70
2023/01/22 01:08:41;;;;;;;10.00;4.93;;;2.40;99.90;;;;;;5035760;28;20031;-70
2023/01/22 01:11:10;;;;;;;7.90;4.38;;;2.30;99.90;;;;;;5038055;28;20025;-70
2023/01/22 01:13:37;;;;;;;6.38;3.95;;;2.40;99.90;;;;;;5055861;28;20064;-70
2023/01/22 01:16:05;;;;;;;8.98;4.32;;;2.50;99.90;;;;;;5056121;28;20028;-71
2023/01/22 01:18:32;;;;;;;12.10;3.90;;;2.50;99.90;;;;;;5038344;28;20024;-70
2023/01/22 01:20:59;;;;;;;10.02;3.78;;;2.50;99.90;;;;;;5037890;28;20033;-70
2023/01/22 01:23:26;;;;;;;8.98;4.75;;;2.40;99.90;;;;;;5056209;28;20029;-70
2023/01/22 01:25:52;;;;;;;9.32;3.90;;;2.40;99.90;;;;;;5037752;28;20123;-70
2023/01/22 01:28:18;;;;;;;6.53;3.30;;;2.40;99.90;;;;;;5037824;28;20155;-71
2023/01/22 01:30:44;;;;;;;8.60;4.15;;;2.40;99.90;;;;;;5079706;22;20056;-70
2023/01/22 01:33:10;;;;;;;8.60;3.72;;;2.50;99.90;;;;;;5054984;28;20021;-70
2023/01/22 01:35:36;;;;;;;6.10;3.10;;;2.50;99.90;;;;;;5056236;28;20108;-70
2023/01/22 01:38:02;;;;;;;6.15;3.55;;;2.60;99.90;;;;;;5056052;28;20025;-70
2023/01/22 01:40:27;;;;;;;8.32;3.83;;;2.50;99.90;;;;;;5055103;28;20021;-70
2023/01/22 01:42:53;;;;;;;8.00;3.90;;;2.50;99.90;;;;;;5054818;28;20205;-70
2023/01/22 01:45:28;;;;;;;8.63;3.95;;;2.50;99.90;;;;;;5054831;28;20028;-70
2023/01/22 01:48:21;;;;;;;6.55;3.60;;;2.50;99.90;;;;;;5056294;28;20017;-70
2023/01/22 01:50:54;;;;;;;9.50;4.03;;;2.50;99.90;;;;;;5055644;28;20115;-69
2023/01/22 01:53:20;;;;;;;7.45;3.67;;;2.70;99.90;;;;;;5056077;28;20021;-70
2023/01/22 01:55:45;;;;;;;6.43;3.45;;;2.60;99.90;;;;;;5056240;28;20051;-70
2023/01/22 01:58:20;;;;;;;7.97;3.78;;;2.70;99.90;;;;;;5055039;28;20028;-70
2023/01/22 02:00:47;;;;;;;6.93;3.53;;;2.70;99.90;;;;;;5054533;28;20112;-70
2023/01/22 02:03:12;;;;;;;6.88;3.63;;;2.70;99.90;;;;;;5054372;28;20029;-70
2023/01/22 02:05:38;;;;;;;4.78;3.50;;;2.70;99.90;;;;;;5054473;28;20028;-69
2023/01/22 02:08:05;;;;;;;6.05;3.22;;;2.70;99.90;;;;;;5055700;28;20061;-69
2023/01/22 02:10:31;;;;;;;8.32;3.78;;;2.70;99.90;;;;;;5054734;28;20025;-70
2023/01/22 02:13:02;;;;;;;6.22;3.67;;;2.60;99.90;;;;;;5054311;28;20044;-69
2023/01/22 02:15:27;;;;;;;6.28;2.97;;;2.50;99.90;;;;;;5054506;28;20021;-70
2023/01/22 02:17:53;;;;;;;6.97;3.60;;;2.50;99.90;;;;;;5055983;28;20025;-70
2023/01/22 02:20:18;;;;;;;6.13;3.00;;;2.60;99.90;;;;;;5053827;28;20028;-69
2023/01/22 02:22:44;;;;;;;7.40;3.65;;;2.60;99.90;;;;;;5054085;28;20087;-69
2023/01/22 02:25:09;;;;;;;6.85;3.40;;;2.50;99.90;;;;;;5054292;28;20036;-69
2023/01/22 02:27:35;;;;;;;4.97;2.78;;;2.50;99.90;;;;;;5055369;28;20333;-69
2023/01/22 02:30:01;;;;;;;7.50;3.63;;;2.50;99.90;;;;;;5054003;28;20060;-70
2023/01/22 02:32:27;;;;;;;4.32;2.80;;;2.50;99.90;;;;;;5055176;28;20033;-69
2023/01/22 02:34:54;;;;;;;4.22;2.78;;;2.60;99.90;;;;;;5053950;28;20035;-69
2023/01/22 02:37:19;;;;;;;6.68;2.65;;;2.70;99.90;;;;;;5054054;28;20017;-69
2023/01/22 02:39:45;;;;;;;5.40;3.00;;;2.70;99.90;;;;;;5054106;28;20023;-69
2023/01/22 02:42:11;;;;;;;5.90;2.63;;;2.60;99.90;;;;;;5053835;28;20063;-69
2023/01/22 02:44:36;;;;;;;5.00;2.75;;;2.70;99.90;;;;;;5053514;28;20017;-69
2023/01/22 02:47:02;;;;;;;6.00;3.30;;;2.70;99.90;;;;;;5055200;28;20025;-69
2023/01/22 02:49:28;;;;;;;5.18;3.00;;;2.80;99.90;;;;;;5054764;28;20020;-70
2023/01/22 02:51:53;;;;;;;5.88;2.80;;;2.80;99.90;;;;;;5053436;28;20115;-69
2023/01/22 02:54:19;;;;;;;5.68;3.13;;;2.80;99.90;;;;;;5055235;28;20103;-70
2023/01/22 02:56:44;;;;;;;6.32;2.80;;;2.80;99.90;;;;;;5053793;28;20025;-69
2023/01/22 02:59:10;;;;;;;7.38;3.53;;;2.90;99.90;;;;;;5053802;28;20025;-70
2023/01/22 03:01:50;;;;;;;4.43;2.50;;;2.90;99.90;;;;;;5053516;28;20021;-70
2023/01/22 03:04:16;;;;;;;4.70;2.70;;;2.90;99.90;;;;;;5055016;28;20036;-69
2023/01/22 03:06:44;;;;;;;7.78;2.28;;;2.80;99.90;;;;;;5052876;28;20025;-69
2023/01/22 03:09:12;;;;;;;4.57;2.50;;;2.90;99.90;;;;;;5053675;28;20028;-69
2023/01/22 03:11:39;;;;;;;7.53;4.03;;;2.80;99.90;;;;;;5054169;28;20074;-70
2023/01/22 03:22:18;;;;;;;3.67;2.10;;;2.80;99.90;;;;;;5053991;28;20044;-69
2023/01/22 03:24:49;;;;;;;4.68;2.60;;;2.90;99.90;;;;;;5052436;28;20029;-69
2023/01/22 03:27:15;;;;;;;6.27;2.90;;;2.70;99.90;;;;;;5053521;28;20025;-69
2023/01/22 03:29:40;;;;;;;6.03;2.67;;;2.80;99.90;;;;;;5053315;28;20036;-69
2023/01/22 03:32:06;;;;;;;3.85;2.08;;;2.90;99.90;;;;;;5051762;28;20052;-69
2023/01/22 03:34:32;;;;;;;5.85;2.38;;;2.90;99.90;;;;;;5051925;28;20499;-69
2023/01/22 03:36:57;;;;;;;3.83;2.40;;;3.00;99.90;;;;;;5053989;28;20021;-69
2023/01/22 03:39:23;;;;;;;4.82;2.72;;;3.00;99.90;;;;;;5053110;28;20017;-69
2023/01/22 03:41:48;;;;;;;4.80;2.80;;;3.00;99.90;;;;;;5052538;28;20029;-69
2023/01/22 03:44:14;;;;;;;4.53;2.53;;;3.00;99.90;;;;;;5053378;28;20033;-69
2023/01/22 03:46:39;;;;;;;4.50;2.40;;;3.00;99.90;;;;;;5053333;28;20065;-69
2023/01/22 03:49:07;;;;;;;4.35;2.35;;;3.10;99.90;;;;;;5053726;28;20025;-69
2023/01/22 03:51:33;;;;;;;2.90;2.05;;;3.10;99.90;;;;;;5053175;28;20051;-69
2023/01/22 03:53:59;;;;;;;3.55;2.40;;;3.10;99.90;;;;;;5051930;28;20066;-69
2023/01/22 03:56:25;;;;;;;3.70;2.65;;;3.10;99.90;;;;;;5051906;28;20029;-69
2023/01/22 03:58:51;;;;;;;3.30;2.35;;;3.00;99.90;;;;;;5051915;28;20112;-69
2023/01/22 04:01:22;;;;;;;5.00;2.58;;;2.90;99.90;;;;;;5053232;28;20049;-69
2023/01/22 04:03:48;;;;;;;3.37;2.07;;;3.00;99.90;;;;;;5053144;28;20108;-69
2023/01/22 04:06:14;;;;;;;6.93;2.60;;;3.00;99.90;;;;;;5052606;28;20110;-69
2023/01/22 04:08:41;;;;;;;4.18;2.47;;;3.00;99.90;;;;;;5051754;28;20073;-69
2023/01/22 04:11:07;;;;;;;6.30;2.10;;;3.00;99.90;;;;;;5051593;28;20483;-69
2023/01/22 04:13:34;;;;;;;5.50;2.60;;;3.00;99.90;;;;;;5053271;28;20049;-69
2023/01/22 04:16:00;;;;;;;4.25;2.45;;;3.00;99.90;;;;;;5051754;28;20025;-69
2023/01/22 04:18:26;;;;;;;3.30;2.08;;;3.00;99.90;;;;;;5052935;28;20438;-69
2023/01/22 04:20:52;;;;;;;5.15;2.70;;;3.00;99.90;;;;;;5052724;28;20024;-69
2023/01/22 04:23:19;;;;;;;5.30;2.20;;;3.00;99.90;;;;;;5051584;28;20039;-69
2023/01/22 04:25:45;;;;;;;6.35;2.70;;;3.00;99.90;;;;;;5051886;28;20029;-69
2023/01/22 04:28:11;;;;;;;5.00;2.28;;;3.00;99.90;;;;;;5051700;28;20029;-69
2023/01/22 04:30:37;;;;;;;5.60;2.55;;;3.00;99.90;;;;;;5051744;28;20064;-69
2023/01/22 04:33:03;;;;;;;5.28;2.30;;;3.00;99.90;;;;;;5051515;28;20023;-69
2023/01/22 04:35:29;;;;;;;3.53;2.30;;;3.00;99.90;;;;;;5052246;28;20028;-70
2023/01/22 04:37:55;;;;;;;5.05;2.33;;;3.00;99.90;;;;;;5051561;28;20021;-70
2023/01/22 04:40:21;;;;;;;5.65;2.38;;;3.10;99.90;;;;;;5052692;28;20029;-69
2023/01/22 04:42:46;;;;;;;3.15;2.45;;;3.00;99.90;;;;;;5053022;28;20036;-69
2023/01/22 04:45:12;;;;;;;3.95;2.58;;;3.00;99.90;;;;;;5054565;28;20078;-69
2023/01/22 04:47:40;;;;;;;4.35;2.20;;;3.10;99.90;;;;;;5055486;28;20029;-69
2023/01/22 04:50:05;;;;;;;3.70;2.30;;;3.00;99.90;;;;;;5055375;28;20502;-69
2023/01/22 04:52:31;;;;;;;3.72;2.20;;;3.00;99.90;;;;;;5056562;28;20025;-69
2023/01/22 04:54:56;;;;;;;4.47;2.50;;;3.00;99.90;;;;;;5056520;28;20021;-69
2023/01/22 04:57:22;;;;;;;5.47;2.72;;;3.10;99.90;;;;;;5055616;28;20377;-69
2023/01/22 04:59:47;;;;;;;7.68;2.13;;;3.00;99.90;;;;;;5055108;28;20017;-69
2023/01/22 05:02:13;;;;;;;3.92;2.70;;;3.00;99.90;;;;;;5055478;28;20043;-69
2023/01/22 05:04:38;;;;;;;3.40;2.38;;;3.00;99.90;;;;;;5055447;28;20026;-69
2023/01/22 05:07:04;;;;;;;2.85;2.30;;;3.00;99.90;;;;;;5056393;28;20541;-69
2023/01/22 05:09:29;;;;;;;3.60;2.33;;;3.00;99.90;;;;;;5056135;28;20421;-69
2023/01/22 05:11:55;;;;;;;4.22;2.75;;;3.00;99.90;;;;;;5055673;28;20029;-69
2023/01/22 05:14:21;;;;;;;4.72;2.38;;;3.00;99.90;;;;;;5055232;28;20586;-69
2023/01/22 05:16:47;;;;;;;4.95;2.78;;;2.90;99.90;;;;;;5055383;28;20021;-69
2023/01/22 05:19:13;;;;;;;5.28;2.50;;;2.80;99.90;;;;;;5055285;28;20143;-69
2023/01/22 05:21:38;;;;;;;4.07;2.72;;;2.90;99.90;;;;;;5055240;28;20116;-69
2023/01/22 05:24:04;;;;;;;3.60;2.45;;;2.90;99.90;;;;;;5054756;28;20087;-69
2023/01/22 05:26:30;;;;;;;4.80;3.10;;;2.70;99.90;;;;;;5054716;28;20028;-69
2023/01/22 05:28:55;;;;;;;6.68;3.00;;;2.70;99.90;;;;;;5054617;28;20032;-70
2023/01/22 05:31:21;;;;;;;7.47;2.28;;;2.90;99.90;;;;;;5054559;28;20028;-70
2023/01/22 05:33:47;;;;;;;4.53;2.85;;;2.80;99.90;;;;;;5054669;28;20052;-69
2023/01/22 05:36:13;;;;;;;5.25;3.28;;;2.80;99.90;;;;;;5054510;28;20048;-69
2023/01/22 05:38:38;;;;;;;3.72;2.13;;;2.90;99.90;;;;;;5054744;28;20017;-69
2023/01/22 05:41:04;;;;;;;3.65;2.17;;;3.00;99.90;;;;;;5054257;28;20096;-69
2023/01/22 05:43:29;;;;;;;5.20;3.20;;;3.00;99.90;;;;;;5055775;28;20027;-69
2023/01/22 05:46:01;;;;;;;4.50;3.00;;;3.00;99.90;;;;;;5054435;28;20091;-69
2023/01/22 05:48:27;;;;;;;4.15;2.95;;;2.90;99.90;;;;;;5054393;28;20036;-69
2023/01/22 05:50:53;;;;;;;5.50;2.78;;;2.90;99.90;;;;;;5055617;28;20032;-68
2023/01/22 05:53:18;;;;;;;7.85;3.45;;;2.90;99.90;;;;;;5055224;28;20112;-69
2023/01/22 05:55:44;;;;;;;5.68;2.83;;;2.90;99.90;;;;;;5053506;28;20103;-69
2023/01/22 05:58:09;;;;;;;4.05;2.30;;;2.90;99.90;;;;;;5055631;28;20088;-69
2023/01/22 06:00:35;;;;;;;4.07;2.65;;;2.90;99.90;;;;;;5055387;28;20108;-69
2023/01/22 06:03:00;;;;;;;5.10;3.38;;;2.80;99.90;;;;;;5054062;28;20040;-70
2023/01/22 06:05:26;;;;;;;3.55;2.25;;;3.00;99.90;;;;;;5055775;28;20025;-69
2023/01/22 06:07:52;;;;;;;4.15;2.95;;;3.00;99.90;;;;;;5054633;28;20036;-69
2023/01/22 06:10:17;;;;;;;5.13;2.95;;;3.00;99.90;;;;;;5054958;28;20047;-69
2023/01/22 06:12:43;;;;;;;3.15;2.30;;;3.00;99.90;;;;;;5053761;28;20028;-69
2023/01/22 06:15:10;;;;;;;5.10;2.90;;;3.10;99.90;;;;;;5054855;28;20025;-69
2023/01/22 06:17:35;;;;;;;4.55;2.58;;;2.90;99.90;;;;;;5054875;28;20053;-69
2023/01/22 06:20:01;;;;;;;3.53;2.35;;;3.00;99.90;;;;;;5054583;28;20056;-69
2023/01/22 06:22:26;;;;;;;4.80;2.78;;;3.00;99.90;;;;;;5054738;28;20017;-69
2023/01/22 06:24:52;;;;;;;5.43;2.60;;;3.10;99.90;;;;;;5054017;28;20075;-69
2023/01/22 06:27:18;;;;;;;4.78;2.53;;;3.10;99.90;;;;;;5053852;28;20067;-69
2023/01/22 06:29:43;;;;;;;4.85;2.92;;;3.10;99.90;;;;;;5053445;28;20025;-70
2023/01/22 06:32:09;;;;;;;6.13;2.63;;;3.10;99.90;;;;;;5054101;28;20104;-69
2023/01/22 06:34:35;;;;;;;4.88;2.97;;;3.00;99.90;;;;;;5053730;28;20037;-69
2023/01/22 06:37:01;;;;;;;3.78;2.53;;;3.10;99.90;;;;;;5053284;28;20021;-69
2023/01/22 06:39:26;;;;;;;5.35;3.05;;;3.10;99.90;;;;;;5054715;28;20017;-69
2023/01/22 06:41:52;;;;;;;5.32;2.92;;;3.00;99.90;;;;;;5053363;28;20068;-69
2023/01/22 06:44:18;;;;;;;3.92;2.83;;;3.10;99.90;;;;;;5054465;28;20060;-70
2023/01/22 06:46:45;;;;;;;4.20;2.33;;;3.00;99.90;;;;;;5054367;28;20104;-70
2023/01/22 06:49:11;;;;;;;3.08;2.33;;;3.10;99.90;;;;;;5053035;28;20032;-70
2023/01/22 06:51:37;;;;;;;6.05;2.80;;;3.10;99.90;;;;;;5053413;28;20025;-70
2023/01/22 06:54:03;;;;;;;4.70;2.40;;;3.10;99.90;;;;;;5054505;28;20036;-70
2023/01/22 06:56:28;;;;;;;8.80;2.95;;;3.20;99.90;;;;;;5053069;28;20057;-70
2023/01/22 06:58:54;;;;;;;3.13;2.50;;;3.10;99.90;;;;;;5052917;28;20066;-69
2023/01/22 07:01:20;;;;;;;3.72;2.17;;;3.10;99.90;;;;;;5054048;28;20024;-70
2023/01/22 07:03:45;;;;;;;6.10;2.72;;;3.00;99.90;;;;;;5053250;28;20494;-71
2023/01/22 07:06:11;;;;;;;5.20;2.40;;;3.00;99.90;;;;;;5054151;28;20029;-70
2023/01/22 07:08:37;;;;;;;4.75;3.10;;;3.10;99.90;;;;;;5052679;28;20059;-70
2023/01/22 07:11:04;;;;;;;4.07;2.55;;;3.20;99.90;;;;;;5052812;28;20029;-70
2023/01/22 07:13:30;;;;;;;5.13;2.35;;;3.20;99.90;;;;;;5052705;28;20109;-71
2023/01/22 07:16:01;;;;;;;3.65;2.40;;;3.20;99.90;;;;;;5052808;28;20059;-70
2023/01/22 07:18:27;;;;;;;3.88;2.85;;;3.20;99.90;;;;;;5052466;28;20032;-71
2023/01/22 07:20:53;;;;;;;4.10;2.45;;;3.00;99.90;;;;;;5052824;28;20033;-71
2023/01/22 07:23:18;;;;;;;4.55;2.30;;;3.00;99.90;;;;;;5052607;28;20025;-71
2023/01/22 07:25:45;;;;;;;4.07;2.38;;;3.10;99.90;;;;;;5052406;28;20024;-71
2023/01/22 07:28:13;;;;;;;2.45;2.00;;;3.10;99.90;;;;;;5053395;28;20411;-71
2023/01/22 07:30:42;;;;;;;3.08;2.13;;;3.00;99.90;;;;;;5053554;28;20055;-70
2023/01/22 07:33:10;;;;;;;3.42;2.53;;;3.00;99.90;;;;;;5052533;28;20373;-70
2023/01/22 07:35:35;;;;;;;4.53;2.38;;;3.10;99.90;;;;;;5053339;28;20028;-70
2023/01/22 07:38:01;;;;;;;3.60;2.03;;;3.10;99.90;;;;;;5053467;28;20100;-70
2023/01/22 07:40:27;;;;;;;2.25;1.85;;;3.20;99.90;;;;;;5053425;28;20067;-70
2023/01/22 07:42:54;;;;;;;3.75;2.13;;;3.20;99.90;;;;;;5052268;28;20033;-69
2023/01/22 07:45:19;;;;;;;3.05;2.50;;;3.20;99.90;;;;;;5043525;28;20049;-70
2023/01/22 07:47:56;;;;;;;3.67;2.15;;;3.10;99.90;;;;;;5053025;28;20071;-70
2023/01/22 07:50:27;;;;;;;4.10;2.45;;;3.20;99.90;;;;;;5043676;28;20036;-70
2023/01/22 07:52:53;;;;;;;4.00;1.88;;;3.20;99.90;;;;;;5053074;28;20029;-69
2023/01/22 07:55:19;;;;;;;2.40;1.58;;;3.20;99.90;;;;;;5051844;28;20066;-70
2023/01/22 07:57:45;;;;;;;3.13;2.03;;;3.20;99.90;;;;;;5053164;28;20029;-70
2023/01/22 08:00:11;;;;;;;3.40;1.95;;;3.20;99.90;;;;;;5052897;28;20028;-69
2023/01/22 08:02:38;;;;;;;3.47;2.10;;;3.10;99.90;;;;;;5052048;28;20025;-69
2023/01/22 08:05:04;;;;;;;3.80;2.10;;;3.20;99.90;;;;;;5051957;28;20021;-70
2023/01/22 08:07:29;;;;;;;3.03;2.00;;;3.20;99.90;;;;;;5052890;28;20016;-70
2023/01/22 08:09:56;;;;;;;4.43;1.88;;;3.30;99.90;;;;;;5052934;28;20025;-70
2023/01/22 08:12:21;;;;;;;3.25;1.88;;;3.30;99.90;;;;;;5052013;28;20029;-70
2023/01/22 08:14:47;;;;;;;3.55;2.35;;;3.30;99.90;;;;;;5051640;28;20024;-70
2023/01/22 08:17:12;;;;;;;4.13;2.33;;;3.40;99.90;;;;;;5051751;28;20025;-70
2023/01/22 08:19:38;;;;;;;3.65;2.20;;;3.40;99.90;;;;;;5055809;28;20024;-70
2023/01/22 08:22:04;;;;;;;2.97;1.92;;;3.40;99.90;;;;;;5058131;28;20086;-70
2023/01/22 08:24:30;;;;;;;3.85;2.28;;;3.40;99.90;;;;;;5059644;28;20025;-70
2023/01/22 08:26:56;;;;;;;4.70;2.35;;;3.40;99.90;;;;;;5058221;28;20052;-70
2023/01/22 08:29:22;;;;;;;2.47;1.67;;;3.40;99.90;;;;;;5057927;28;20017;-70
2023/01/22 08:31:48;;;;;;;2.58;1.80;;;3.30;99.90;;;;;;5058212;28;20138;-69
2023/01/22 08:34:13;;;;;;;2.38;1.90;;;3.40;99.90;;;;;;5059426;28;20089;-69
2023/01/22 08:36:39;;;;;;;3.33;2.38;;;3.40;99.90;;;;;;5058230;28;20025;-69
2023/01/22 08:39:04;;;;;;;3.45;2.25;;;3.50;99.90;;;;;;5058446;28;20029;-70
2023/01/22 08:41:30;;;;;;;3.72;2.28;;;3.50;99.90;;;;;;5059908;28;20032;-69
2023/01/22 08:47:18;;;;;;;3.25;1.90;;;3.50;99.90;;;;;;5059753;28;20024;-69
2023/01/22 08:49:43;;;;;;;2.90;2.00;;;3.50;99.90;;;;;;5058657;28;20021;-70
2023/01/22 08:52:09;;;;;;;3.78;2.38;;;3.50;99.90;;;;;;5058614;28;20063;-68
2023/01/22 08:54:34;;;;;;;3.15;2.20;;;3.50;99.90;;;;;;5059101;28;20017;-68
2023/01/22 08:57:00;;;;;;;3.03;1.90;;;3.50;99.90;;;;;;5058235;28;20020;-68
2023/01/22 08:59:25;;;;;;;3.13;2.03;;;3.60;99.90;;;;;;5058415;28;20467;-69
2023/01/22 09:01:51;;;;;;;2.50;1.90;;;3.60;99.90;;;;;;5058464;28;20039;-68
2023/01/22 09:04:18;;;;;;;3.60;2.30;;;3.50;99.90;;;;;;5059639;28;20399;-68
2023/01/22 09:06:44;;;;;;;3.60;2.17;;;3.50;99.90;;;;;;5059287;28;20025;-68
2023/01/22 09:09:10;;;;;;;2.67;2.03;;;3.50;99.90;;;;;;5059644;28;20032;-68
2023/01/22 09:11:36;;;;;;;3.30;2.40;;;3.50;99.90;;;;;;5058449;28;20039;-68
2023/01/22 09:14:02;;;;;;;3.20;2.40;;;3.60;99.90;;;;;;5059761;28;20021;-68
2023/01/22 09:16:28;;;;;;;3.55;2.40;;;3.60;99.90;;;;;;5058171;28;20110;-68
2023/01/22 09:18:53;;;;;;;4.75;2.55;;;3.60;99.90;;;;;;5057995;28;20017;-68
2023/01/22 09:21:19;;;;;;;2.78;1.80;;;3.60;99.90;;;;;;5057877;28;20099;-69
2023/01/22 09:23:44;;;;;;;3.83;2.47;;;3.60;99.90;;;;;;5059385;28;20024;-68
2023/01/22 09:26:10;;;;;;;3.80;2.25;;;3.60;99.90;;;;;;5059290;28;20067;-68
2023/01/22 09:28:36;;;;;;;3.28;1.95;;;3.70;99.90;;;;;;5059471;28;20108;-68
2023/01/22 09:31:02;;;;;;;3.08;2.20;;;3.70;99.90;;;;;;5056022;28;20029;-68
2023/01/22 09:33:28;;;;;;;2.60;2.13;;;3.70;99.90;;;;;;5056460;28;20021;-68
2023/01/22 09:35:53;;;;;;;2.95;2.00;;;3.80;99.90;;;;;;5055627;28;20023;-68
2023/01/22 09:38:19;;;;;;;3.72;2.40;;;3.80;99.90;;;;;;5054711;28;20107;-68
2023/01/22 09:40:50;;;;;;;4.00;2.40;;;3.80;99.90;;;;;;5055876;28;20086;-68
2023/01/22 09:43:44;;;;;;;4.78;2.65;;;3.70;99.90;;;;;;5054735;28;20128;-68
2023/01/22 09:46:37;;;;;;;2.78;2.10;;;3.80;99.90;;;;;;5054514;28;20029;-68
2023/01/22 09:49:13;;;;;;;2.80;2.05;;;3.80;99.90;;;;;;5055874;28;20028;-69
2023/01/22 09:51:39;;;;;;;3.65;2.15;;;3.80;99.90;;;;;;5054351;28;20431;-68
2023/01/22 09:54:07;;;;;;;2.53;1.80;;;3.80;99.90;;;;;;5055601;28;20021;-68
2023/01/22 09:56:40;;;;;;;3.78;2.03;;;3.90;99.90;;;;;;5055544;28;20047;-68
2023/01/22 09:59:11;;;;;;;3.65;2.30;;;3.80;99.90;;;;;;5055819;28;20078;-69
2023/01/22 10:01:37;;;;;;;3.30;2.30;;;3.80;99.90;;;;;;5055382;28;20100;-68
2023/01/22 10:04:20;;;;;;;4.03;2.00;;;3.80;99.90;;;;;;5055178;28;20045;-68
2023/01/22 10:06:47;;;;;;;3.50;2.20;;;3.80;99.90;;;;;;5055050;28;20029;-68
2023/01/22 10:09:17;;;;;;;3.67;2.30;;;3.80;99.90;;;;;;5054130;28;20029;-68
2023/01/22 10:11:48;;;;;;;6.20;2.90;;;3.80;99.90;;;;;;5053978;28;20079;-68
2023/01/22 10:14:16;;;;;;;3.55;2.42;;;3.90;99.90;;;;;;5056078;28;20033;-67
2023/01/22 10:16:44;;;;;;;4.18;2.25;;;4.00;99.90;;;;;;5054204;28;20048;-68
2023/01/22 10:19:27;;;;;;;2.75;2.10;;;4.10;99.90;;;;;;5054008;28;20017;-68
2023/01/22 10:21:58;;;;;;;5.05;2.90;;;4.00;99.90;;;;;;5055482;28;20033;-68
2023/01/22 10:24:24;;;;;;;4.40;2.35;;;4.00;99.90;;;;;;5054105;28;20088;-67
2023/01/22 10:26:53;;;;;;;3.15;2.17;;;4.00;99.90;;;;;;5055223;28;20100;-68
2023/01/22 10:29:33;;;;;;;3.33;2.22;;;4.00;99.90;;;;;;5053715;28;20029;-68
2023/01/22 10:32:31;;;;;;;3.60;2.40;;;4.00;99.90;;;;;;5055390;28;20029;-68
2023/01/22 10:35:15;;;;;;;3.03;2.33;;;4.00;99.90;;;;;;4977700;28;20037;-67
2023/01/22 10:37:49;;;;;;;5.25;2.03;;;4.00;99.90;;;;;;4993369;28;20176;-68
2023/01/22 10:40:39;;;;;;;4.25;2.50;;;4.10;99.90;;;;;;4993478;28;20032;-68
2023/01/22 10:43:16;;;;;;;3.97;2.35;;;4.20;99.90;;;;;;4992896;28;20037;-68
2023/01/22 10:45:53;;;;;;;3.67;2.50;;;4.10;99.90;;;;;;4993578;28;20040;-68
2023/01/22 10:48:19;;;;;;;2.85;2.53;;;4.10;99.90;;;;;;4993223;28;20076;-68
2023/01/22 10:50:45;;;;;;;3.50;2.20;;;4.10;99.90;;;;;;4993053;28;20038;-68
2023/01/22 10:53:30;;;;;;;3.45;2.20;;;4.10;99.90;;;;;;4992984;28;20082;-68
2023/01/22 10:55:59;;;;;;;3.83;2.63;;;4.20;99.90;;;;;;4993257;28;20041;-68
2023/01/22 10:58:33;;;;;;;2.88;2.53;;;4.20;99.90;;;;;;4993814;28;20065;-68
2023/01/22 11:01:02;;;;;;;5.07;2.95;;;4.10;99.90;;;;;;4993625;28;20041;-68
2023/01/22 11:03:31;;;;;;;3.88;2.42;;;4.10;99.90;;;;;;4993349;28;20030;-68
2023/01/22 11:06:12;;;;;;;3.35;2.45;;;4.10;99.90;;;;;;4993271;28;20044;-68
2023/01/22 11:08:52;;;;;;;3.30;2.30;;;4.20;99.90;;;;;;4993644;28;20038;-68
2023/01/22 11:11:23;;;;;;;2.70;2.20;;;4.10;99.90;;;;;;5039072;28;20033;-67
2023/01/22 11:13:59;;;;;;;3.10;2.13;;;4.20;99.90;;;;;;5052818;28;20043;-68
2023/01/22 11:16:27;;;;;;;4.18;3.00;;;4.20;99.90;;;;;;5054306;28;20044;-68
2023/01/22 11:19:03;;;;;;;7.00;2.78;;;4.20;99.90;;;;;;5054085;28;20025;-68
2023/01/22 11:21:39;;;;;;;5.28;2.45;;;4.20;99.90;;;;;;5054076;28;20032;-70
2023/01/22 11:24:35;;;;;;;3.80;2.45;;;4.20;99.90;;;;;;5054081;28;20033;-69
2023/01/22 11:27:24;;;;;;;2.78;1.77;;;4.10;99.90;;;;;;5054213;28;20025;-68
2023/01/22 11:29:56;;;;;;;3.42;2.33;;;4.10;99.90;;;;;;5052598;28;20037;-68
2023/01/22 11:32:35;;;;;;;4.28;2.53;;;3.90;99.90;;;;;;5052941;28;20029;-68
2023/01/22 11:35:38;;;;;;;3.72;2.45;;;3.90;99.90;;;;;;5052467;28;20590;-68
2023/01/22 11:38:41;;;;;;;3.80;2.03;;;4.10;99.90;;;;;;5052665;28;20025;-68
2023/01/22 11:41:35;;;;;;;2.63;1.75;;;4.10;99.90;;;;;;5052674;28;20025;-68
2023/01/22 11:44:31;;;;;;;2.42;1.42;;;4.00;99.90;;;;;;5053777;28;20079;-68
2023/01/22 11:47:08;;;;;;;2.08;1.65;;;3.90;99.90;;;;;;5054074;28;20036;-68
2023/01/22 11:49:51;;;;;;;2.08;1.50;;;3.90;99.90;;;;;;5053123;28;20025;-68
2023/01/22 11:52:31;;;;;;;2.90;1.65;;;4.00;99.90;;;;;;5052591;28;20032;-68
2023/01/22 11:55:15;;;;;;;2.78;1.75;;;4.10;99.90;;;;;;5051515;28;20075;-68
2023/01/22 11:57:47;;;;;;;2.85;1.90;;;4.10;99.90;;;;;;5052202;28;20025;-68
2023/01/22 12:00:35;;;;;;;4.45;1.90;;;4.10;99.90;;;;;;5053033;28;20025;-68
2023/01/22 12:03:34;;;;;;;2.88;1.70;;;4.10;99.90;;;;;;5052407;28;20071;-68
2023/01/22 12:06:23;;;;;;;12.05;4.25;;;4.10;99.90;;;;;;5053444;28;20055;-68
2023/01/22 12:09:20;;;;;;;7.38;3.00;;;4.20;99.90;;;;;;5053419;28;20460;-68
2023/01/22 12:11:58;;;;;;;7.43;3.63;;;4.20;99.90;;;;;;5053352;28;20033;-68
2023/01/22 12:14:37;;;;;;;3.60;2.70;;;4.30;99.90;;;;;;5052503;28;20025;-68
2023/01/22 12:17:29;;;;;;;4.95;3.10;;;4.20;99.90;;;;;;5051945;28;20021;-68
2023/01/22 12:20:29;;;;;;;6.75;3.05;;;4.20;99.90;;;;;;5029789;28;20519;-68
2023/01/22 12:23:00;;;;;;;6.00;3.05;;;4.30;99.90;;;;;;5051818;28;20025;-68
2023/01/22 12:25:42;;;;;;;3.72;2.35;;;4.30;99.90;;;;;;5052212;28;20123;-68
2023/01/22 12:28:13;;;;;;;4.32;2.83;;;4.40;99.90;;;;;;5053110;28;20029;-68
2023/01/22 12:30:51;;;;;;;4.18;2.65;;;4.40;99.90;;;;;;5051741;28;20033;-68
2023/01/22 12:33:24;;;;;;;3.70;2.47;;;4.40;99.90;;;;;;5051948;28;20149;-68
2023/01/22 12:35:52;;;;;;;3.60;2.28;;;4.40;99.90;;;;;;5053212;28;20034;-68
2023/01/22 12:38:33;;;;;;;4.15;2.70;;;4.40;99.90;;;;;;5052337;28;20043;-68
2023/01/22 12:41:22;;;;;;;3.63;2.65;;;4.30;99.90;;;;;;5051787;28;20120;-68
2023/01/22 12:44:36;;;;;;;4.22;2.78;;;4.30;99.90;;;;;;5052029;28;20025;-69
2023/01/22 12:47:13;;;;;;;4.15;2.75;;;4.20;99.90;;;;;;4992633;28;20395;-68
2023/01/22 12:49:51;;;;;;;3.85;2.45;;;4.20;99.90;;;;;;5053262;28;20087;-68
2023/01/22 12:52:30;;;;;;;3.45;2.22;;;4.20;99.90;;;;;;5053168;28;20048;-68
2023/01/22 12:54:57;;;;;;;3.55;2.40;;;4.30;99.90;;;;;;5052844;28;20037;-68
2023/01/22 12:57:26;;;;;;;4.35;2.60;;;4.30;99.90;;;;;;5051643;28;20025;-68
2023/01/22 12:59:56;;;;;;;4.75;2.38;;;4.30;99.90;;;;;;5052246;28;20032;-68
2023/01/22 13:02:29;;;;;;;5.13;3.00;;;4.20;99.90;;;;;;5052642;28;20025;-68
2023/01/22 13:04:56;;;;;;;2.85;2.38;;;4.30;99.90;;;;;;5052029;28;20040;-68
2023/01/22 13:07:27;;;;;;;6.15;2.75;;;4.20;99.90;;;;;;5055285;28;20025;-68
2023/01/22 13:10:18;;;;;;;4.85;2.95;;;4.30;99.90;;;;;;5056705;28;20025;-68
2023/01/22 13:12:48;;;;;;;4.03;2.45;;;4.20;99.90;;;;;;5056569;28;20033;-68
2023/01/22 13:15:24;;;;;;;4.75;2.72;;;4.30;99.90;;;;;;5055618;28;20025;-68
2023/01/22 13:18:00;;;;;;;4.53;2.47;;;4.30;99.90;;;;;;5056241;28;20029;-68